KMKY

Details ICAO KMKY (MRK)
Name Marco Island
Region United States
Timezone America/New_York (UTC-5.0)
Plans Departing 13
Arriving 8
Stats Elevation 5 ft / 2 m (AMSL)
Location 25.995040° -81.672529°
Runways 1
Magnetic Variation 5.812° W
Sunrise 2017-12-14 12:07:06 UTC / 2017-12-14 07:07:06 Local
Sunset 2017-12-14 22:38:40 UTC / 2017-12-14 17:38:40 Local
Advertisement - Login to hide

Runways

ID Width Length Bearing (true) Bearing (mag) Surface Threshold Offset Overrun Length
17 100 ft / 30 m 5,019 ft / 1,530 m 167.77° 173.58° Asphalt 0 ft / 0 m 0 ft / 0 m
35 100 ft / 30 m 5,019 ft / 1,530 m 347.77° 353.58° Asphalt 0 ft / 0 m 0 ft / 0 m

Map

Weather


0- 5 10 15 20 25 30 35+ Temperature / ° C

Clouds and Precipitation
Forecast for 2017-12-15 00:00 UTC. Updated 2 hours ago

Ground ~20,000 ft ~40,000 ft Winds

METAR

KMKY 141956Z AUTO 19008KT 10SM CLR 21/12 A3005 RMK AO2 SLP176 T02060122

TAF

Not found

Frequencies

Recorded 120.07 MHz AWOS 3
Clearance 120.80 MHz CLNC DEL
Unicom 122.80 MHz CTAF/UNICOM
Approach 119.75 MHz FORT MYERS APP/DEP
Warning: Do not use this data for real-world aviation or navigation. No guarantee of current accuracy is given.